createdAt,value
2023-01-28T00:00:58.227Z,3.16
2023-01-28T00:03:26.154Z,3.14
2023-01-28T00:06:03.608Z,3.16
2023-01-28T00:08:31.579Z,3.11
2023-01-28T00:11:00.626Z,3.14
2023-01-28T00:13:28.901Z,3.10
2023-01-28T00:15:58.336Z,3.12
2023-01-28T00:18:26.474Z,3.11
2023-01-28T00:20:59.843Z,3.09
2023-01-28T00:23:29.232Z,3.07
2023-01-28T00:25:59.690Z,3.10
2023-01-28T00:28:27.708Z,3.10
2023-01-28T00:30:55.539Z,3.11
2023-01-28T00:33:23.557Z,3.11
2023-01-28T00:36:00.486Z,3.11
2023-01-28T00:38:28.539Z,3.07
2023-01-28T00:40:56.672Z,3.06
2023-01-28T00:43:24.878Z,3.05
2023-01-28T00:45:52.809Z,3.05
2023-01-28T00:48:21.879Z,3.03
2023-01-28T00:50:49.672Z,3.02
2023-01-28T00:53:19.003Z,3.06
2023-01-28T00:55:46.874Z,3.03
2023-01-28T00:58:16.614Z,3.06
2023-01-28T01:00:44.671Z,3.03
2023-01-28T01:03:12.650Z,3.05
2023-01-28T01:05:40.501Z,3.06
2023-01-28T01:08:09.223Z,3.03
2023-01-28T01:10:40.708Z,3.05
2023-01-28T01:13:10.177Z,3.03
2023-01-28T01:15:37.968Z,3.02
2023-01-28T01:18:06.561Z,3.00
2023-01-28T01:20:39.933Z,3.00
2023-01-28T01:23:07.769Z,2.94
2023-01-28T01:25:35.502Z,2.86
2023-01-28T01:28:04.987Z,2.88
2023-01-28T01:30:32.963Z,2.84
2023-01-28T01:33:00.741Z,2.78
2023-01-28T01:35:28.731Z,2.78
2023-01-28T01:37:56.472Z,2.70
2023-01-28T01:40:24.458Z,2.68
2023-01-28T01:42:52.220Z,2.69
2023-01-28T01:45:21.447Z,2.69
2023-01-28T01:47:53.742Z,2.67
2023-01-28T01:50:31.618Z,2.68
2023-01-28T01:53:04.278Z,2.64
2023-01-28T01:55:37.923Z,2.62
2023-01-28T01:58:10.908Z,2.65
2023-01-28T02:00:41.464Z,2.64
2023-01-28T02:03:11.060Z,2.66
2023-01-28T02:05:40.522Z,2.66
2023-01-28T02:08:22.083Z,2.66
2023-01-28T02:10:53.309Z,2.64
2023-01-28T02:13:25.666Z,2.67
2023-01-28T02:15:56.153Z,2.69
2023-01-28T02:18:24.120Z,2.68
2023-01-28T02:21:32.100Z,2.68
2023-01-28T02:24:20.558Z,2.68
2023-01-28T02:27:03.306Z,2.67
2023-01-28T02:29:38.844Z,2.66
2023-01-28T02:32:11.364Z,2.68
2023-01-28T02:34:45.423Z,2.64
2023-01-28T02:37:18.791Z,2.66
2023-01-28T02:39:50.561Z,2.67
2023-01-28T02:42:22.622Z,2.67
2023-01-28T02:44:52.013Z,2.68
2023-01-28T02:47:37.353Z,2.67
2023-01-28T02:50:09.927Z,2.68
2023-01-28T02:53:11.777Z,2.70
2023-01-28T02:55:44.676Z,2.68
2023-01-28T02:58:19.869Z,2.69
2023-01-28T03:00:55.379Z,2.73
2023-01-28T03:03:29.339Z,2.73
2023-01-28T03:06:06.690Z,2.74
2023-01-28T03:08:57.214Z,2.75
2023-01-28T03:11:43.464Z,2.74
2023-01-28T03:14:30.128Z,2.74
2023-01-28T03:17:20.298Z,2.74
2023-01-28T03:20:06.025Z,2.72
2023-01-28T03:22:56.175Z,2.75
2023-01-28T03:25:45.090Z,2.76
2023-01-28T03:28:35.930Z,2.77
2023-01-28T03:31:25.715Z,2.78
2023-01-28T03:34:17.442Z,2.78
2023-01-28T03:36:53.406Z,2.78
2023-01-28T03:39:40.074Z,2.76
2023-01-28T03:42:12.751Z,2.78
2023-01-28T03:44:50.201Z,2.78
2023-01-28T03:47:19.195Z,2.79
2023-01-28T03:49:51.846Z,2.80
2023-01-28T03:52:24.415Z,2.78
2023-01-28T03:54:56.464Z,2.77
2023-01-28T03:57:26.276Z,2.76
2023-01-28T03:59:55.075Z,2.78
2023-01-28T04:02:25.261Z,2.76
2023-01-28T04:04:55.086Z,2.79
2023-01-28T04:07:22.968Z,2.77
2023-01-28T04:10:23.267Z,2.75
2023-01-28T04:12:56.690Z,2.74
2023-01-28T04:15:26.255Z,2.75
2023-01-28T04:17:55.420Z,2.73
2023-01-28T04:20:31.111Z,2.73
2023-01-28T04:23:00.930Z,2.70
2023-01-28T04:25:29.856Z,2.71
2023-01-28T04:27:58.575Z,2.70
2023-01-28T04:30:29.628Z,2.69
2023-01-28T04:33:08.992Z,2.68
2023-01-28T04:35:48.737Z,2.66
2023-01-28T04:38:25.595Z,2.64
2023-01-28T04:41:13.657Z,2.63
2023-01-28T04:43:41.574Z,2.63
2023-01-28T04:46:38.524Z,2.60
2023-01-28T04:49:22.733Z,2.59
2023-01-28T04:51:54.729Z,2.61
2023-01-28T04:54:46.478Z,2.55
2023-01-28T04:57:15.769Z,2.56
2023-01-28T04:59:43.678Z,2.55
2023-01-28T05:02:11.837Z,2.54
2023-01-28T05:04:40.445Z,2.54
2023-01-28T05:07:11.086Z,2.55
2023-01-28T05:09:38.917Z,2.53
2023-01-28T05:12:07.178Z,2.54
2023-01-28T05:14:37.839Z,2.53
2023-01-28T05:17:07.724Z,2.54
2023-01-28T05:19:36.375Z,2.53
2023-01-28T05:22:05.941Z,2.52
2023-01-28T05:24:42.733Z,2.52
2023-01-28T05:27:11.259Z,2.50
2023-01-28T05:29:39.036Z,2.50
2023-01-28T05:32:07.205Z,2.49
2023-01-28T05:34:34.934Z,2.48
2023-01-28T05:37:08.822Z,2.47
2023-01-28T05:39:38.905Z,2.49
2023-01-28T05:42:08.202Z,2.46
2023-01-28T05:44:40.728Z,2.46
2023-01-28T05:47:23.958Z,2.45
2023-01-28T05:49:56.258Z,2.46
2023-01-28T05:52:44.709Z,2.47
2023-01-28T05:55:24.649Z,2.49
2023-01-28T05:57:53.889Z,2.52
2023-01-28T06:00:24.203Z,2.51
2023-01-28T06:02:52.734Z,2.53
2023-01-28T06:05:21.895Z,2.54
2023-01-28T06:07:50.050Z,2.54
2023-01-28T06:10:18.476Z,2.57
2023-01-28T06:12:47.091Z,2.57
2023-01-28T06:15:35.023Z,2.53
2023-01-28T06:18:24.913Z,2.53
2023-01-28T06:20:53.012Z,2.55
2023-01-28T06:23:20.757Z,2.54
2023-01-28T06:25:48.635Z,2.53
2023-01-28T06:28:17.149Z,2.53
2023-01-28T06:30:49.422Z,2.50
2023-01-28T06:33:17.211Z,2.42
2023-01-28T06:35:45.082Z,2.42
2023-01-28T06:38:13.336Z,2.40
2023-01-28T06:40:41.389Z,2.32
2023-01-28T06:43:09.239Z,2.33
2023-01-28T06:45:36.933Z,2.30
2023-01-28T06:48:08.832Z,2.29
2023-01-28T06:50:36.734Z,2.19
2023-01-28T06:53:04.484Z,2.19
2023-01-28T06:55:32.244Z,2.20
2023-01-28T06:57:59.985Z,2.19
2023-01-28T07:00:27.829Z,2.18
2023-01-28T07:02:57.926Z,2.19
2023-01-28T07:05:27.478Z,2.19
2023-01-28T07:07:55.212Z,2.19
2023-01-28T07:10:23.242Z,2.19
2023-01-28T07:12:51.003Z,2.20
2023-01-28T07:15:18.937Z,2.21
2023-01-28T07:17:47.048Z,2.21
2023-01-28T07:20:16.442Z,2.20
2023-01-28T07:22:46.296Z,2.18
2023-01-28T07:25:15.400Z,2.15
2023-01-28T07:27:48.893Z,2.13
2023-01-28T07:30:17.392Z,2.11
2023-01-28T07:32:45.475Z,2.08
2023-01-28T07:35:14.194Z,2.09
2023-01-28T07:37:41.885Z,2.08
2023-01-28T07:40:12.701Z,2.08
2023-01-28T07:42:41.099Z,2.04
2023-01-28T07:45:11.850Z,2.03
2023-01-28T07:47:39.676Z,2.04
2023-01-28T07:50:08.114Z,2.01
2023-01-28T07:52:44.119Z,2.03
2023-01-28T07:55:15.402Z,2.02
2023-01-28T07:57:50.570Z,2.03
2023-01-28T08:00:19.343Z,2.00
2023-01-28T08:02:48.247Z,1.95
2023-01-28T08:05:18.299Z,1.97
2023-01-28T08:07:48.369Z,1.95
2023-01-28T08:10:18.926Z,1.96
2023-01-28T08:12:54.496Z,1.98
2023-01-28T08:15:22.906Z,1.95
2023-01-28T08:17:50.760Z,1.97
2023-01-28T08:20:18.941Z,2.00
2023-01-28T08:22:46.735Z,2.00
2023-01-28T08:25:14.809Z,2.03
2023-01-28T08:27:43.979Z,2.00
2023-01-28T08:30:13.298Z,2.03
2023-01-28T08:32:41.355Z,2.04
2023-01-28T08:35:09.710Z,2.06
2023-01-28T08:37:37.498Z,2.06
2023-01-28T08:40:06.320Z,2.09
2023-01-28T08:42:34.057Z,2.09
2023-01-28T08:45:03.755Z,2.13
2023-01-28T08:47:31.511Z,2.12
2023-01-28T08:49:59.312Z,2.14
2023-01-28T08:52:27.076Z,2.12
2023-01-28T08:54:54.942Z,2.13
2023-01-28T08:57:22.707Z,2.11
2023-01-28T08:59:50.564Z,2.10
2023-01-28T09:02:31.040Z,2.05
2023-01-28T09:05:00.398Z,2.04
2023-01-28T09:07:28.305Z,2.02
2023-01-28T09:09:56.133Z,2.02
2023-01-28T09:12:24.089Z,1.96
2023-01-28T09:14:52.168Z,1.98
2023-01-28T09:17:21.404Z,1.98
2023-01-28T09:19:50.047Z,1.96
2023-01-28T09:22:18.343Z,1.94
2023-01-28T09:24:46.334Z,1.92
2023-01-28T09:27:14.268Z,1.93
2023-01-28T09:29:42.107Z,1.91
2023-01-28T09:32:09.935Z,1.90
2023-01-28T09:34:39.323Z,1.92
2023-01-28T09:37:07.141Z,1.93
2023-01-28T09:39:35.010Z,1.94
2023-01-28T09:42:20.649Z,2.00
2023-01-28T09:45:01.088Z,2.00
2023-01-28T09:47:33.660Z,2.04
2023-01-28T09:50:07.129Z,2.04
2023-01-28T09:52:38.264Z,2.09
2023-01-28T09:55:08.304Z,2.13
2023-01-28T09:57:42.131Z,2.15
2023-01-28T10:00:16.290Z,2.19
2023-01-28T10:03:00.502Z,2.20
2023-01-28T10:05:39.925Z,2.19
2023-01-28T10:08:26.547Z,2.22
2023-01-28T10:11:03.384Z,2.21
2023-01-28T10:13:44.762Z,2.22
2023-01-28T10:16:25.345Z,2.23
2023-01-28T10:18:57.424Z,2.17
2023-01-28T10:21:34.660Z,2.14
2023-01-28T10:24:08.092Z,2.13
2023-01-28T10:26:45.347Z,2.11
2023-01-28T10:29:17.773Z,2.13
2023-01-28T10:31:53.327Z,2.06
2023-01-28T10:34:21.615Z,2.11
2023-01-28T10:36:52.441Z,2.14
2023-01-28T10:39:22.726Z,2.17
2023-01-28T10:41:57.864Z,2.18
2023-01-28T10:44:33.613Z,2.23
2023-01-28T10:47:05.908Z,2.25
2023-01-28T10:49:42.958Z,2.28
2023-01-28T10:52:16.420Z,2.26
2023-01-28T10:54:44.271Z,2.24
2023-01-28T10:57:16.143Z,2.24
2023-01-28T10:59:44.395Z,2.25
2023-01-28T11:02:32.229Z,2.24
2023-01-28T11:05:07.168Z,2.24
2023-01-28T11:07:36.379Z,2.23
2023-01-28T11:10:04.347Z,2.20
2023-01-28T11:12:32.534Z,2.20
2023-01-28T11:15:02.142Z,2.22
2023-01-28T11:17:32.947Z,2.22
2023-01-28T11:20:10.328Z,2.22
2023-01-28T11:22:42.812Z,2.24
2023-01-28T11:25:19.313Z,2.26
2023-01-28T11:27:49.565Z,2.28
2023-01-28T11:30:24.558Z,2.33
2023-01-28T11:33:00.302Z,2.35
2023-01-28T11:35:30.936Z,2.37
2023-01-28T11:38:01.423Z,2.39
2023-01-28T11:40:29.903Z,2.41
2023-01-28T11:42:59.713Z,2.44
2023-01-28T11:45:39.332Z,2.48
2023-01-28T11:48:22.787Z,2.49
2023-01-28T11:50:56.872Z,2.25
2023-01-28T11:54:06.149Z,2.43
2023-01-28T11:57:02.653Z,2.45
2023-01-28T11:59:56.016Z,2.49
2023-01-28T12:02:40.127Z,2.44
2023-01-28T12:05:20.527Z,2.44
2023-01-28T12:07:55.530Z,2.43
2023-01-28T12:10:32.992Z,2.44
2023-01-28T12:13:21.502Z,2.45
2023-01-28T12:16:19.340Z,2.43
2023-01-28T12:19:12.692Z,2.41
2023-01-28T12:21:54.545Z,2.40
2023-01-28T12:24:37.744Z,2.42
2023-01-28T12:27:11.748Z,2.15
2023-01-28T12:29:50.034Z,2.35
2023-01-28T12:32:39.088Z,2.39
2023-01-28T12:35:32.692Z,2.40
2023-01-28T12:38:04.170Z,2.39
2023-01-28T12:40:51.371Z,2.43
2023-01-28T12:43:25.099Z,2.44
2023-01-28T12:45:58.868Z,2.48
2023-01-28T12:48:33.435Z,2.51
2023-01-28T12:51:06.159Z,2.52
2023-01-28T12:53:41.669Z,2.53
2023-01-28T12:56:15.670Z,2.55
2023-01-28T12:58:50.685Z,2.58
2023-01-28T13:01:26.880Z,2.58
2023-01-28T13:03:59.215Z,2.58
2023-01-28T13:06:32.756Z,2.58
2023-01-28T13:09:04.308Z,2.60
2023-01-28T13:11:36.990Z,2.61
2023-01-28T13:14:06.062Z,2.58
2023-01-28T13:16:38.281Z,2.61
2023-01-28T13:19:09.000Z,2.59
2023-01-28T13:21:48.762Z,2.63
2023-01-28T13:24:32.751Z,2.67
2023-01-28T13:27:22.947Z,2.70
2023-01-28T13:30:03.326Z,2.75
2023-01-28T13:32:35.086Z,2.78
2023-01-28T13:35:06.540Z,2.82
2023-01-28T13:37:37.846Z,2.86
2023-01-28T13:40:23.639Z,2.89
2023-01-28T13:43:00.909Z,2.92
2023-01-28T13:45:28.981Z,2.90
2023-01-28T13:48:02.192Z,2.95
2023-01-28T13:50:40.106Z,2.97
2023-01-28T13:53:23.615Z,2.99
2023-01-28T13:55:57.189Z,3.00
2023-01-28T13:59:12.326Z,3.01
2023-01-28T14:01:58.411Z,3.02
2023-01-28T14:05:06.702Z,3.01
2023-01-28T14:07:56.965Z,3.02
2023-01-28T14:10:50.117Z,3.02
2023-01-28T14:13:33.259Z,3.00
2023-01-28T14:16:28.795Z,3.00
2023-01-28T14:19:00.335Z,3.00
2023-01-28T14:21:33.311Z,3.01
2023-01-28T14:24:01.234Z,2.79
2023-01-28T14:26:39.684Z,2.97
2023-01-28T14:29:17.611Z,2.99
2023-01-28T14:31:45.862Z,2.98
2023-01-28T14:34:23.729Z,3.01
2023-01-28T14:36:56.086Z,3.00
2023-01-28T14:39:28.256Z,2.98
2023-01-28T14:41:59.396Z,2.98
2023-01-28T14:44:31.570Z,3.00
2023-01-28T14:47:18.487Z,3.00
2023-01-28T14:50:01.926Z,3.00
2023-01-28T14:52:52.546Z,2.99
2023-01-28T14:55:32.875Z,2.98
2023-01-28T14:58:04.096Z,2.97
2023-01-28T15:00:34.225Z,2.96
2023-01-28T15:03:23.173Z,2.96
2023-01-28T15:06:03.153Z,2.97
2023-01-28T15:08:33.263Z,2.96
2023-01-28T15:11:02.837Z,2.96
2023-01-28T15:13:33.587Z,2.94
2023-01-28T15:16:01.917Z,2.94
2023-01-28T15:18:33.252Z,2.95
2023-01-28T15:21:02.079Z,2.92
2023-01-28T15:23:35.281Z,2.94
2023-01-28T15:26:06.878Z,2.94
2023-01-28T15:28:38.582Z,2.93
2023-01-28T15:31:08.230Z,2.91
2023-01-28T15:33:36.243Z,2.90
2023-01-28T15:36:04.403Z,2.90
2023-01-28T15:38:32.224Z,2.89
2023-01-28T15:41:03.399Z,2.89
2023-01-28T15:43:34.758Z,2.86
2023-01-28T15:46:03.042Z,2.84
2023-01-28T15:48:33.325Z,2.83
2023-01-28T15:51:03.470Z,2.82
2023-01-28T15:53:35.936Z,2.81
2023-01-28T15:56:11.430Z,2.80
2023-01-28T15:58:41.661Z,2.77
2023-01-28T16:01:19.270Z,2.78
2023-01-28T16:03:48.906Z,2.74
2023-01-28T16:06:19.595Z,2.73
2023-01-28T16:08:54.356Z,2.73
2023-01-28T16:11:27.129Z,2.70
2023-01-28T16:13:55.869Z,2.66
2023-01-28T16:16:30.645Z,2.68
2023-01-28T16:18:58.593Z,2.62
2023-01-28T16:21:28.954Z,2.63
2023-01-28T16:24:02.833Z,2.63
2023-01-28T16:26:34.231Z,2.61
2023-01-28T16:29:14.032Z,2.60
2023-01-28T16:31:42.021Z,2.58
2023-01-28T16:34:11.861Z,2.60
2023-01-28T16:36:39.729Z,2.59
2023-01-28T16:39:07.531Z,2.58
2023-01-28T16:41:43.276Z,2.60
2023-01-28T16:44:14.397Z,2.58
2023-01-28T16:46:42.804Z,2.56
2023-01-28T16:49:11.235Z,2.55
2023-01-28T16:51:42.529Z,2.54
2023-01-28T16:54:14.480Z,2.53
2023-01-28T16:56:46.324Z,2.52
2023-01-28T16:59:16.347Z,2.50
2023-01-28T17:01:44.647Z,2.49
2023-01-28T17:04:13.437Z,2.46
2023-01-28T17:06:44.245Z,2.45
2023-01-28T17:09:12.938Z,2.43
2023-01-28T17:11:41.256Z,2.42
2023-01-28T17:14:11.150Z,2.41
2023-01-28T17:16:39.152Z,2.38
2023-01-28T17:19:07.457Z,2.37
2023-01-28T17:21:35.462Z,2.36
2023-01-28T17:24:03.612Z,2.34
2023-01-28T17:26:33.831Z,2.32
2023-01-28T17:29:02.072Z,2.30
2023-01-28T17:31:31.373Z,2.30
2023-01-28T17:34:00.039Z,2.26
2023-01-28T17:36:29.010Z,2.25
2023-01-28T17:38:56.873Z,2.22
2023-01-28T17:41:24.756Z,2.20
2023-01-28T17:43:53.642Z,2.19
2023-01-28T17:46:23.386Z,2.16
2023-01-28T17:48:52.927Z,2.15
2023-01-28T17:51:20.896Z,2.11
2023-01-28T17:53:50.058Z,2.10
2023-01-28T17:56:19.009Z,2.09
2023-01-28T17:58:50.690Z,2.07
2023-01-28T18:01:18.606Z,2.04
2023-01-28T18:03:46.524Z,2.02
2023-01-28T18:06:15.940Z,2.02
2023-01-28T18:08:43.801Z,2.00
2023-01-28T18:11:13.032Z,1.99
2023-01-28T18:13:41.643Z,1.96
2023-01-28T18:16:14.422Z,1.96
2023-01-28T18:18:42.397Z,1.92
2023-01-28T18:21:21.773Z,1.94
2023-01-28T18:23:51.799Z,1.90
2023-01-28T18:26:19.561Z,1.88
2023-01-28T18:28:48.365Z,1.88
2023-01-28T18:31:16.393Z,1.88
2023-01-28T18:33:44.407Z,1.86
2023-01-28T18:36:12.667Z,1.85
2023-01-28T18:38:41.900Z,1.86
2023-01-28T18:41:09.931Z,1.83
2023-01-28T18:43:37.770Z,1.82
2023-01-28T18:46:12.555Z,1.84
2023-01-28T18:48:40.816Z,1.80
2023-01-28T18:51:17.440Z,1.79
2023-01-28T18:53:59.259Z,1.78
2023-01-28T18:56:27.250Z,1.76
2023-01-28T18:58:58.396Z,1.76
2023-01-28T19:01:27.187Z,1.74
2023-01-28T19:03:55.175Z,1.71
2023-01-28T19:06:23.134Z,1.69
2023-01-28T19:08:53.893Z,1.68
2023-01-28T19:11:23.848Z,1.67
2023-01-28T19:13:52.128Z,1.63
2023-01-28T19:16:20.637Z,1.62
2023-01-28T19:18:52.827Z,1.61
2023-01-28T19:21:30.098Z,1.59
2023-01-28T19:23:59.733Z,1.56
2023-01-28T19:26:28.843Z,1.54
2023-01-28T19:28:56.955Z,1.52
2023-01-28T19:31:25.973Z,1.51
2023-01-28T19:33:59.422Z,1.51
2023-01-28T19:36:31.441Z,1.48
2023-01-28T19:39:00.110Z,1.44
2023-01-28T19:41:28.452Z,1.40
2023-01-28T19:43:57.413Z,1.39
2023-01-28T19:46:25.833Z,1.36
2023-01-28T19:48:54.002Z,1.34
2023-01-28T19:51:21.881Z,1.32
2023-01-28T19:53:52.732Z,1.30
2023-01-28T19:56:22.010Z,1.28
2023-01-28T19:58:50.416Z,1.25
2023-01-28T20:01:20.908Z,1.23
2023-01-28T20:03:52.711Z,1.21
2023-01-28T20:06:21.163Z,1.16
2023-01-28T20:08:54.267Z,1.18
2023-01-28T20:11:23.339Z,1.13
2023-01-28T20:13:52.616Z,1.11
2023-01-28T20:16:23.220Z,1.10
2023-01-28T20:18:51.845Z,1.07
2023-01-28T20:21:20.681Z,1.06
2023-01-28T20:23:49.471Z,1.05
2023-01-28T20:26:21.146Z,1.04
2023-01-28T20:28:49.709Z,1.01
2023-01-28T20:31:18.287Z,1.01
2023-01-28T20:33:46.568Z,0.99
2023-01-28T20:36:15.616Z,0.98
2023-01-28T20:38:45.415Z,0.96
2023-01-28T20:41:15.643Z,0.96
2023-01-28T20:43:45.904Z,0.95
2023-01-28T20:46:16.498Z,0.94
2023-01-28T20:48:44.731Z,0.91
2023-01-28T20:51:17.788Z,0.91
2023-01-28T20:53:46.102Z,0.68
2023-01-28T20:56:16.801Z,0.84
2023-01-28T20:58:46.572Z,0.86
2023-01-28T21:01:18.580Z,0.86
2023-01-28T21:03:47.096Z,0.81
2023-01-28T21:06:15.536Z,0.83
2023-01-28T21:08:43.816Z,0.81
2023-01-28T21:11:12.884Z,0.80
2023-01-28T21:13:40.891Z,0.78
2023-01-28T21:16:10.494Z,0.78
2023-01-28T21:18:38.528Z,0.74
2023-01-28T21:21:08.410Z,0.72
2023-01-28T21:23:36.428Z,0.69
2023-01-28T21:26:06.576Z,0.67
2023-01-28T21:28:34.562Z,0.64
2023-01-28T21:31:07.308Z,0.63
2023-01-28T21:33:36.641Z,0.59
2023-01-28T21:36:09.799Z,0.59
2023-01-28T21:38:37.653Z,0.55
2023-01-28T21:41:06.629Z,0.55
2023-01-28T21:43:35.171Z,0.53
2023-01-28T21:46:03.035Z,0.50
2023-01-28T21:48:31.585Z,0.49
2023-01-28T21:51:24.679Z,0.51
2023-01-28T21:53:52.585Z,0.44
2023-01-28T21:56:20.458Z,0.46
2023-01-28T21:59:05.906Z,0.45
2023-01-28T22:01:33.884Z,0.42
2023-01-28T22:04:01.819Z,0.40
2023-01-28T22:06:31.109Z,0.40
2023-01-28T22:08:59.087Z,0.36
2023-01-28T22:11:26.958Z,0.33
2023-01-28T22:13:54.859Z,0.32
2023-01-28T22:16:22.789Z,0.31
2023-01-28T22:18:50.646Z,0.28
2023-01-28T22:21:18.484Z,0.27
2023-01-28T22:23:47.707Z,0.27
2023-01-28T22:26:15.521Z,0.26
2023-01-28T22:28:43.432Z,0.25
2023-01-28T22:31:13.741Z,0.25
2023-01-28T22:33:42.420Z,0.24
2023-01-28T22:36:13.964Z,0.25
2023-01-28T22:38:43.308Z,0.25
2023-01-28T22:41:14.562Z,0.23
2023-01-28T22:43:43.150Z,0.21
2023-01-28T22:46:11.604Z,0.20
2023-01-28T22:48:41.017Z,0.18
2023-01-28T22:51:11.503Z,0.15
2023-01-28T22:53:39.628Z,0.14
2023-01-28T22:56:09.128Z,0.11
2023-01-28T22:58:38.714Z,0.10
2023-01-28T23:01:07.591Z,0.08
2023-01-28T23:03:35.612Z,0.06
2023-01-28T23:06:05.783Z,0.06
2023-01-28T23:08:34.538Z,0.03
2023-01-28T23:11:03.611Z,0.02
2023-01-28T23:13:52.900Z,0.00
2023-01-28T23:16:39.462Z,-0.02
2023-01-28T23:19:24.767Z,-0.05
2023-01-28T23:22:10.095Z,-0.07
2023-01-28T23:24:39.068Z,-0.07
2023-01-28T23:27:06.884Z,-0.09
2023-01-28T23:29:34.784Z,-0.08
2023-01-28T23:32:06.317Z,-0.10
2023-01-28T23:34:36.278Z,-0.11
2023-01-28T23:37:05.708Z,-0.12
2023-01-28T23:39:33.996Z,-0.15
2023-01-28T23:42:10.774Z,-0.13
2023-01-28T23:44:38.747Z,-0.17
2023-01-28T23:47:08.225Z,-0.17
2023-01-28T23:49:36.653Z,-0.18
2023-01-28T23:52:05.681Z,-0.19
2023-01-28T23:54:33.840Z,-0.22
2023-01-28T23:57:02.506Z,-0.23
2023-01-28T23:59:30.809Z,-0.25
